createdAt,value
2023-01-08T00:00:30.948Z,16.45
2023-01-08T00:03:16.222Z,27.55
2023-01-08T00:06:06.271Z,20.55
2023-01-08T00:08:52.014Z,19.20
2023-01-08T00:11:37.631Z,17.23
2023-01-08T00:14:23.364Z,19.50
2023-01-08T00:17:08.672Z,13.60
2023-01-08T00:19:53.973Z,16.10
2023-01-08T00:22:39.399Z,16.65
2023-01-08T00:25:24.625Z,14.73
2023-01-08T00:28:10.180Z,17.95
2023-01-08T00:30:56.018Z,25.27
2023-01-08T00:33:41.663Z,23.27
2023-01-08T00:36:27.348Z,28.45
2023-01-08T00:39:12.468Z,21.50
2023-01-08T00:41:57.851Z,12.27
2023-01-08T00:44:43.177Z,22.45
2023-01-08T00:47:28.640Z,17.58
2023-01-08T00:50:14.263Z,11.90
2023-01-08T00:52:59.759Z,13.63
2023-01-08T00:55:45.253Z,20.02
2023-01-08T00:58:31.154Z,16.25
2023-01-08T01:01:16.959Z,20.17
2023-01-08T01:04:02.618Z,18.30
2023-01-08T01:06:48.158Z,13.13
2023-01-08T01:09:33.750Z,17.15
2023-01-08T01:12:19.275Z,18.40
2023-01-08T01:15:07.710Z,16.80
2023-01-08T01:17:53.588Z,19.98
2023-01-08T01:20:39.268Z,16.77
2023-01-08T01:23:24.704Z,15.13
2023-01-08T01:26:18.231Z,20.15
2023-01-08T01:29:03.701Z,20.90
2023-01-08T01:31:49.108Z,23.08
2023-01-08T01:34:35.276Z,14.65
2023-01-08T01:37:20.838Z,15.50
2023-01-08T01:40:06.778Z,16.27
2023-01-08T01:42:52.389Z,10.88
2023-01-08T01:45:37.795Z,17.48
2023-01-08T01:48:23.199Z,13.40
2023-01-08T01:51:08.623Z,16.80
2023-01-08T01:53:54.418Z,20.63
2023-01-08T01:56:40.967Z,18.45
2023-01-08T01:59:26.316Z,19.95
2023-01-08T02:02:12.350Z,16.35
2023-01-08T02:04:58.182Z,29.42
2023-01-08T02:07:57.014Z,24.75
2023-01-08T02:10:54.285Z,20.55
2023-01-08T02:13:46.888Z,17.80
2023-01-08T02:17:06.508Z,20.10
2023-01-08T02:19:58.851Z,27.83
2023-01-08T02:22:50.302Z,16.13
2023-01-08T02:25:51.084Z,22.10
2023-01-08T02:28:43.048Z,17.55
2023-01-08T02:31:30.278Z,20.77
2023-01-08T02:34:15.762Z,23.55
2023-01-08T02:37:02.039Z,21.70
2023-01-08T02:40:15.812Z,18.83
2023-01-08T02:43:34.695Z,20.08
2023-01-08T02:46:29.208Z,15.68
2023-01-08T02:49:16.810Z,21.27
2023-01-08T02:52:05.978Z,27.30
2023-01-08T02:54:53.079Z,26.08
2023-01-08T02:57:40.101Z,27.75
2023-01-08T03:00:26.781Z,23.08
2023-01-08T03:03:24.606Z,12.93
2023-01-08T03:06:14.121Z,17.67
2023-01-08T03:09:00.776Z,24.92
2023-01-08T03:11:59.183Z,24.40
2023-01-08T03:14:55.403Z,28.58
2023-01-08T03:17:46.996Z,15.85
2023-01-08T03:20:36.224Z,24.42
2023-01-08T03:23:23.288Z,21.58
2023-01-08T03:26:10.073Z,12.20
2023-01-08T03:28:57.835Z,15.00
2023-01-08T03:31:45.913Z,36.03
2023-01-08T03:34:33.888Z,14.90
2023-01-08T03:37:25.476Z,24.20
2023-01-08T03:40:20.588Z,29.85
2023-01-08T03:43:06.119Z,14.75
2023-01-08T03:45:56.431Z,10.52
2023-01-08T03:48:43.323Z,14.32
2023-01-08T03:51:28.935Z,25.17
2023-01-08T03:54:21.875Z,18.00
2023-01-08T03:57:07.477Z,22.75
2023-01-08T03:59:52.842Z,21.77
2023-01-08T04:02:38.341Z,31.73
2023-01-08T04:05:23.924Z,29.55
2023-01-08T04:08:09.282Z,25.83
2023-01-08T04:10:54.544Z,23.65
2023-01-08T04:13:39.976Z,34.22
2023-01-08T04:16:25.393Z,25.30
2023-01-08T04:19:12.249Z,19.33
2023-01-08T04:21:57.616Z,29.95
2023-01-08T04:24:43.043Z,19.52
2023-01-08T04:27:28.535Z,23.30
2023-01-08T04:30:14.376Z,22.80
2023-01-08T04:32:59.983Z,15.35
2023-01-08T04:35:45.402Z,24.38
2023-01-08T04:38:30.852Z,20.48
2023-01-08T04:41:18.603Z,28.70
2023-01-08T04:44:04.169Z,28.58
2023-01-08T04:46:49.778Z,20.48
2023-01-08T04:49:35.095Z,30.05
2023-01-08T04:52:20.376Z,22.02
2023-01-08T04:55:06.253Z,26.25
2023-01-08T04:57:51.562Z,15.63
2023-01-08T05:00:38.726Z,27.55
2023-01-08T05:03:24.739Z,23.58
2023-01-08T05:06:10.298Z,23.75
2023-01-08T05:08:56.122Z,20.55
2023-01-08T05:11:43.275Z,20.17
2023-01-08T05:14:28.777Z,18.90
2023-01-08T05:17:14.303Z,27.55
2023-01-08T05:19:59.595Z,22.75
2023-01-08T05:22:45.006Z,29.65
2023-01-08T05:25:30.503Z,29.20
2023-01-08T05:28:15.781Z,30.38
2023-01-08T05:31:01.336Z,22.05
2023-01-08T05:33:46.575Z,30.92
2023-01-08T05:36:32.248Z,20.98
2023-01-08T05:39:17.876Z,30.17
2023-01-08T05:42:03.583Z,21.15
2023-01-08T05:44:49.311Z,27.35
2023-01-08T05:47:35.517Z,24.58
2023-01-08T05:50:20.994Z,33.92
2023-01-08T05:53:07.824Z,35.33
2023-01-08T05:55:59.090Z,23.02
2023-01-08T05:58:44.351Z,22.05
2023-01-08T06:01:29.840Z,23.90
2023-01-08T06:04:15.592Z,21.92
2023-01-08T06:07:01.359Z,29.65
2023-01-08T06:09:46.930Z,29.48
2023-01-08T06:12:32.224Z,29.85
2023-01-08T06:15:18.071Z,29.85
2023-01-08T06:18:04.545Z,24.10
2023-01-08T06:20:50.164Z,21.52
2023-01-08T06:23:35.581Z,24.50
2023-01-08T06:26:20.805Z,25.83
2023-01-08T06:29:06.572Z,12.68
2023-01-08T06:31:52.080Z,18.00
2023-01-08T06:34:37.480Z,16.70
2023-01-08T06:37:23.012Z,14.40
2023-01-08T06:40:09.025Z,12.15
2023-01-08T06:42:54.689Z,7.28
2023-01-08T06:45:40.016Z,13.82
2023-01-08T06:48:25.673Z,15.10
2023-01-08T06:51:11.199Z,15.65
2023-01-08T06:53:56.747Z,14.07
2023-01-08T06:56:52.963Z,11.35
2023-01-08T06:59:38.875Z,7.80
2023-01-08T07:02:25.685Z,15.50
2023-01-08T07:05:11.070Z,7.30
2023-01-08T07:07:56.787Z,16.42
2023-01-08T07:10:43.391Z,14.95
2023-01-08T07:13:29.507Z,12.07
2023-01-08T07:16:16.365Z,15.57
2023-01-08T07:19:01.585Z,16.08
2023-01-08T07:21:47.010Z,7.90
2023-01-08T07:24:32.374Z,9.85
2023-01-08T07:27:17.886Z,13.65
2023-01-08T07:30:03.404Z,11.20
2023-01-08T07:32:49.074Z,16.48
2023-01-08T07:35:35.695Z,12.35
2023-01-08T07:38:22.265Z,26.30
2023-01-08T07:41:07.811Z,14.23
2023-01-08T07:43:53.085Z,10.27
2023-01-08T07:46:38.844Z,15.02
2023-01-08T07:49:24.639Z,5.22
2023-01-08T07:52:10.137Z,7.78
2023-01-08T07:54:55.452Z,11.52
2023-01-08T07:57:40.637Z,16.38
2023-01-08T08:00:26.854Z,9.07
2023-01-08T08:03:12.292Z,15.95
2023-01-08T08:06:00.355Z,13.85
2023-01-08T08:08:45.957Z,8.30
2023-01-08T08:11:31.365Z,6.55
2023-01-08T08:14:16.905Z,8.15
2023-01-08T08:17:02.167Z,7.95
2023-01-08T08:19:47.486Z,10.20
2023-01-08T08:22:32.880Z,9.35
2023-01-08T08:25:18.303Z,11.70
2023-01-08T08:28:04.535Z,10.27
2023-01-08T08:30:51.853Z,7.50
2023-01-08T08:33:37.284Z,11.93
2023-01-08T08:36:29.192Z,13.13
2023-01-08T08:39:14.898Z,5.70
2023-01-08T08:42:00.502Z,14.70
2023-01-08T08:44:45.931Z,11.80
2023-01-08T08:47:31.283Z,6.90
2023-01-08T08:50:17.180Z,8.77
2023-01-08T08:53:05.331Z,6.68
2023-01-08T08:55:50.967Z,3.72
2023-01-08T08:58:36.325Z,4.20
2023-01-08T09:01:21.700Z,12.45
2023-01-08T09:04:06.920Z,4.55
2023-01-08T09:06:52.585Z,7.80
2023-01-08T09:09:38.206Z,9.15
2023-01-08T09:12:23.653Z,5.07
2023-01-08T09:15:09.367Z,8.38
2023-01-08T09:17:56.127Z,3.83
2023-01-08T09:20:41.742Z,4.20
2023-01-08T09:23:27.051Z,15.68
2023-01-08T09:26:12.520Z,12.07
2023-01-08T09:28:58.789Z,5.80
2023-01-08T09:31:44.432Z,6.28
2023-01-08T09:34:31.685Z,10.50
2023-01-08T09:37:17.132Z,11.27
2023-01-08T09:40:03.268Z,9.23
2023-01-08T09:42:55.485Z,9.05
2023-01-08T09:45:41.086Z,8.30
2023-01-08T09:48:30.047Z,6.57
2023-01-08T09:51:21.073Z,8.95
2023-01-08T09:54:10.144Z,4.97
2023-01-08T09:56:56.159Z,11.02
2023-01-08T09:59:42.753Z,8.30
2023-01-08T10:02:29.952Z,5.43
2023-01-08T10:05:17.791Z,11.32
2023-01-08T10:08:04.769Z,5.82
2023-01-08T10:10:50.468Z,7.97
2023-01-08T10:13:39.729Z,1.90
2023-01-08T10:16:27.773Z,9.35
2023-01-08T10:19:13.130Z,3.20
2023-01-08T10:21:58.791Z,11.82
2023-01-08T10:24:44.447Z,3.92
2023-01-08T10:27:30.025Z,10.70
2023-01-08T10:30:17.906Z,6.53
2023-01-08T10:33:20.209Z,6.80
2023-01-08T10:36:09.155Z,5.38
2023-01-08T10:39:04.108Z,5.32
2023-01-08T10:41:53.832Z,2.60
2023-01-08T10:44:39.448Z,3.15
2023-01-08T10:47:27.929Z,3.38
2023-01-08T10:50:22.799Z,7.53
2023-01-08T10:53:25.646Z,6.45
2023-01-08T10:56:26.041Z,13.70
2023-01-08T10:59:23.080Z,6.07
2023-01-08T11:02:32.891Z,2.13
2023-01-08T11:05:18.830Z,5.93
2023-01-08T11:08:16.084Z,12.32
2023-01-08T11:11:02.468Z,6.38
2023-01-08T11:13:59.054Z,5.22
2023-01-08T11:16:44.351Z,4.97
2023-01-08T11:19:34.330Z,8.15
2023-01-08T11:22:30.604Z,5.20
2023-01-08T11:25:24.570Z,13.55
2023-01-08T11:28:19.634Z,8.35
2023-01-08T11:31:22.705Z,5.30
2023-01-08T11:34:20.027Z,11.80
2023-01-08T11:37:14.291Z,11.25
2023-01-08T11:40:00.032Z,12.18
2023-01-08T11:42:45.621Z,10.43
2023-01-08T11:45:44.185Z,2.67
2023-01-08T11:48:49.205Z,8.30
2023-01-08T11:51:44.131Z,5.68
2023-01-08T11:54:47.778Z,9.45
2023-01-08T11:57:51.638Z,7.43
2023-01-08T12:01:18.923Z,6.80
2023-01-08T12:04:13.312Z,9.32
2023-01-08T12:07:37.006Z,3.67
2023-01-08T12:10:44.047Z,11.90
2023-01-08T12:13:51.242Z,11.35
2023-01-08T12:16:45.994Z,10.15
2023-01-08T12:19:37.350Z,6.43
2023-01-08T12:22:32.430Z,13.88
2023-01-08T12:25:36.178Z,7.10
2023-01-08T12:28:24.489Z,7.90
2023-01-08T12:31:25.787Z,7.85
2023-01-08T12:34:16.878Z,4.05
2023-01-08T12:37:15.395Z,10.27
2023-01-08T12:40:38.616Z,10.13
2023-01-08T12:43:42.811Z,10.85
2023-01-08T12:46:37.135Z,11.85
2023-01-08T12:49:31.228Z,17.23
2023-01-08T12:52:22.678Z,13.95
2023-01-08T12:55:40.512Z,10.65
2023-01-08T12:58:25.835Z,8.20
2023-01-08T13:01:33.583Z,13.60
2023-01-08T13:04:19.769Z,9.10
2023-01-08T13:07:06.087Z,6.22
2023-01-08T13:10:03.067Z,13.98
2023-01-08T13:12:53.688Z,7.68
2023-01-08T13:15:39.011Z,10.15
2023-01-08T13:18:24.379Z,9.43
2023-01-08T13:21:12.109Z,10.07
2023-01-08T13:24:29.648Z,7.40
2023-01-08T13:27:15.034Z,4.93
2023-01-08T13:30:02.108Z,13.35
2023-01-08T13:32:48.978Z,9.52
2023-01-08T13:35:34.742Z,5.65
2023-01-08T13:38:22.330Z,7.20
2023-01-08T13:41:46.463Z,13.60
2023-01-08T13:44:36.113Z,5.60
2023-01-08T13:47:35.390Z,15.32
2023-01-08T13:50:24.785Z,14.88
2023-01-08T13:53:14.109Z,11.88
2023-01-08T13:56:06.978Z,7.57
2023-01-08T13:58:54.479Z,5.45
2023-01-08T14:01:39.906Z,14.48
2023-01-08T14:04:25.372Z,11.13
2023-01-08T14:07:14.154Z,7.93
2023-01-08T14:10:08.663Z,8.00
2023-01-08T14:13:01.202Z,10.25
2023-01-08T14:15:48.384Z,15.60
2023-01-08T14:18:34.387Z,23.13
2023-01-08T14:21:23.488Z,10.15
2023-01-08T14:24:16.683Z,10.07
2023-01-08T14:27:02.043Z,16.92
2023-01-08T14:29:47.612Z,11.05
2023-01-08T14:32:32.895Z,32.28
2023-01-08T14:35:26.824Z,21.40
2023-01-08T14:38:15.052Z,14.63
2023-01-08T14:41:13.583Z,8.27
2023-01-08T14:43:59.028Z,5.70
2023-01-08T14:46:46.253Z,13.70
2023-01-08T14:49:35.328Z,5.45
2023-01-08T14:52:21.704Z,10.50
2023-01-08T14:55:07.251Z,6.63
2023-01-08T14:57:56.107Z,5.28
2023-01-08T15:00:42.475Z,5.20
2023-01-08T15:03:29.359Z,12.25
2023-01-08T15:06:25.325Z,9.20
2023-01-08T15:09:34.362Z,8.75
2023-01-08T15:12:26.034Z,9.52
2023-01-08T15:15:23.898Z,10.32
2023-01-08T15:18:12.253Z,7.78
2023-01-08T15:20:58.851Z,8.38
2023-01-08T15:23:49.092Z,5.85
2023-01-08T15:26:34.672Z,5.13
2023-01-08T15:29:26.558Z,9.35
2023-01-08T15:32:15.098Z,7.30
2023-01-08T15:35:01.360Z,7.88
2023-01-08T15:37:47.142Z,3.78
2023-01-08T15:40:32.474Z,7.32
2023-01-08T15:43:18.784Z,10.25
2023-01-08T15:46:05.308Z,11.55
2023-01-08T15:48:50.849Z,8.25
2023-01-08T15:51:41.555Z,10.75
2023-01-08T15:54:27.368Z,11.10
2023-01-08T15:57:12.770Z,15.23
2023-01-08T15:59:58.965Z,12.95
2023-01-08T16:02:49.426Z,7.50
2023-01-08T16:05:36.659Z,8.48
2023-01-08T16:08:22.288Z,6.90
2023-01-08T16:11:07.901Z,14.68
2023-01-08T16:13:53.359Z,7.72
2023-01-08T16:16:38.907Z,12.23
2023-01-08T16:19:25.109Z,9.32
2023-01-08T16:22:10.489Z,8.55
2023-01-08T16:24:55.858Z,7.82
2023-01-08T16:27:43.132Z,10.45
2023-01-08T16:30:28.462Z,29.52
2023-01-08T16:33:14.057Z,15.65
2023-01-08T16:36:01.642Z,16.15
2023-01-08T16:38:48.075Z,10.23
2023-01-08T16:41:33.772Z,10.27
2023-01-08T16:44:26.957Z,9.13
2023-01-08T16:47:12.562Z,12.27
2023-01-08T16:49:57.900Z,7.35
2023-01-08T16:52:43.284Z,8.30
2023-01-08T16:55:28.693Z,13.02
2023-01-08T16:58:14.182Z,12.70
2023-01-08T17:00:59.460Z,20.20
2023-01-08T17:03:45.284Z,5.88
2023-01-08T17:06:31.466Z,10.85
2023-01-08T17:09:16.944Z,6.85
2023-01-08T17:12:02.645Z,13.98
2023-01-08T17:14:50.025Z,9.40
2023-01-08T17:17:35.360Z,8.63
2023-01-08T17:20:20.850Z,9.32
2023-01-08T17:23:06.351Z,8.45
2023-01-08T17:25:51.836Z,5.10
2023-01-08T17:28:38.037Z,15.18
2023-01-08T17:31:23.814Z,9.68
2023-01-08T17:34:13.784Z,18.05
2023-01-08T17:36:59.439Z,12.70
2023-01-08T17:39:45.792Z,16.05
2023-01-08T17:42:31.229Z,19.83
2023-01-08T17:45:17.437Z,30.88
2023-01-08T17:48:02.944Z,22.15
2023-01-08T17:50:48.431Z,10.05
2023-01-08T17:53:33.731Z,12.38
2023-01-08T17:56:19.124Z,11.57
2023-01-08T17:59:05.241Z,26.50
2023-01-08T18:01:52.934Z,11.45
2023-01-08T18:04:39.675Z,15.90
2023-01-08T18:07:25.078Z,13.40
2023-01-08T18:10:11.098Z,12.75
2023-01-08T18:12:56.858Z,13.38
2023-01-08T18:15:42.118Z,14.52
2023-01-08T18:18:27.633Z,9.93
2023-01-08T18:21:13.024Z,10.25
2023-01-08T18:23:58.520Z,30.45
2023-01-08T18:26:44.920Z,21.75
2023-01-08T18:29:30.285Z,12.07
2023-01-08T18:32:16.136Z,9.85
2023-01-08T18:35:03.787Z,16.63
2023-01-08T18:37:49.367Z,11.73
2023-01-08T18:40:34.801Z,15.95
2023-01-08T18:43:20.816Z,17.13
2023-01-08T18:46:08.067Z,16.75
2023-01-08T18:48:54.147Z,12.48
2023-01-08T18:51:39.654Z,13.98
2023-01-08T18:54:24.980Z,9.52
2023-01-08T18:57:10.563Z,12.48
2023-01-08T18:59:56.308Z,10.63
2023-01-08T19:02:41.768Z,16.10
2023-01-08T19:05:27.155Z,8.07
2023-01-08T19:08:12.474Z,18.30
2023-01-08T19:10:57.838Z,16.48
2023-01-08T19:13:43.415Z,12.82
2023-01-08T19:16:29.058Z,15.02
2023-01-08T19:19:14.358Z,10.85
2023-01-08T19:21:59.990Z,10.07
2023-01-08T19:24:45.349Z,6.22
2023-01-08T19:27:30.710Z,9.15
2023-01-08T19:30:16.540Z,16.67
2023-01-08T19:33:02.170Z,12.70
2023-01-08T19:35:47.650Z,11.00
2023-01-08T19:38:33.120Z,10.00
2023-01-08T19:41:36.911Z,12.05
2023-01-08T19:44:22.862Z,10.20
2023-01-08T19:47:09.370Z,10.27
2023-01-08T19:49:54.580Z,12.48
2023-01-08T19:52:40.210Z,5.50
2023-01-08T19:55:26.406Z,20.10
2023-01-08T19:58:12.327Z,13.73
2023-01-08T20:00:57.723Z,8.85
2023-01-08T20:03:43.664Z,12.48
2023-01-08T20:06:29.712Z,14.70
2023-01-08T20:09:15.147Z,12.52
2023-01-08T20:12:01.288Z,9.80
2023-01-08T20:14:48.109Z,13.57
2023-01-08T20:17:33.606Z,10.95
2023-01-08T20:20:19.112Z,10.45
2023-01-08T20:23:05.046Z,13.07
2023-01-08T20:25:50.634Z,8.93
2023-01-08T20:28:38.629Z,13.80
2023-01-08T20:31:26.483Z,13.00
2023-01-08T20:34:15.563Z,10.52
2023-01-08T20:37:01.293Z,10.23
2023-01-08T20:39:47.607Z,8.18
2023-01-08T20:42:34.271Z,14.68
2023-01-08T20:45:19.919Z,11.68
2023-01-08T20:48:05.678Z,9.82
2023-01-08T20:50:59.617Z,7.65
2023-01-08T20:53:45.250Z,16.13
2023-01-08T20:56:30.861Z,12.85
2023-01-08T20:59:17.761Z,8.80
2023-01-08T21:02:03.126Z,14.32
2023-01-08T21:04:48.512Z,13.02
2023-01-08T21:07:33.756Z,18.77
2023-01-08T21:10:19.204Z,19.35
2023-01-08T21:13:04.415Z,12.25
2023-01-08T21:15:51.079Z,15.05
2023-01-08T21:18:37.005Z,24.58
2023-01-08T21:21:26.257Z,13.73
2023-01-08T21:24:13.007Z,11.30
2023-01-08T21:26:58.694Z,18.50
2023-01-08T21:29:44.029Z,10.40
2023-01-08T21:32:29.554Z,10.40
2023-01-08T21:35:15.321Z,10.88
2023-01-08T21:38:00.666Z,7.30
2023-01-08T21:40:46.195Z,10.15
2023-01-08T21:43:50.026Z,14.02
2023-01-08T21:46:35.556Z,9.48
2023-01-08T21:49:21.020Z,16.25
2023-01-08T21:52:25.448Z,18.25
2023-01-08T21:55:11.165Z,19.55
2023-01-08T21:57:56.560Z,14.27
2023-01-08T22:00:41.909Z,14.65
2023-01-08T22:03:27.362Z,5.30
2023-01-08T22:06:12.880Z,8.95
2023-01-08T22:08:58.200Z,11.90
2023-01-08T22:11:43.671Z,12.85
2023-01-08T22:14:28.844Z,13.27
2023-01-08T22:17:14.810Z,12.93
2023-01-08T22:20:01.935Z,11.50
2023-01-08T22:22:49.695Z,9.15
2023-01-08T22:25:40.848Z,8.45
2023-01-08T22:28:26.602Z,11.48
2023-01-08T22:31:13.597Z,10.32
2023-01-08T22:34:00.115Z,10.68
2023-01-08T22:36:54.810Z,11.50
2023-01-08T22:39:40.403Z,10.07
2023-01-08T22:42:25.940Z,14.77
2023-01-08T22:45:11.449Z,14.27
2023-01-08T22:47:57.220Z,5.93
2023-01-08T22:50:42.692Z,16.98
2023-01-08T22:53:27.919Z,14.10
2023-01-08T22:56:14.506Z,11.52
2023-01-08T22:59:00.070Z,10.15
2023-01-08T23:01:45.811Z,9.30
2023-01-08T23:04:31.194Z,8.70
2023-01-08T23:07:16.528Z,14.23
2023-01-08T23:10:02.216Z,15.70
2023-01-08T23:12:49.211Z,12.30
2023-01-08T23:15:34.874Z,7.03
2023-01-08T23:18:20.486Z,10.32
2023-01-08T23:21:08.531Z,15.43
2023-01-08T23:23:54.540Z,10.48
2023-01-08T23:26:40.235Z,9.32
2023-01-08T23:29:29.767Z,7.50
2023-01-08T23:32:15.579Z,10.07
2023-01-08T23:35:00.844Z,10.50
2023-01-08T23:37:46.222Z,8.48
2023-01-08T23:40:31.720Z,8.48
2023-01-08T23:43:17.054Z,8.30
2023-01-08T23:46:05.623Z,7.40
2023-01-08T23:48:51.314Z,8.18
2023-01-08T23:51:37.647Z,17.17
2023-01-08T23:54:22.951Z,10.13
2023-01-08T23:57:08.283Z,10.15
2023-01-08T23:59:56.684Z,8.77
